Time;durP1;ratioP1;P1;durP2;ratioP2;P2;SDS_P1;SDS_P2;PMS_P1;PMS_P2;Temp;Humidity;BMP_temperature;BMP_pressure;BME280_temperature;BME280_humidity;BME280_pressure;Samples;Min_cycle;Max_cycle;Signal;HPM_P1;HPM_P2
2022/05/29 00:01:13;;;;;;;6.93;2.20;;;10.20;99.90;;;;;;5034946;28;20207;-90
2022/05/29 00:03:40;;;;;;;9.10;1.87;;;10.30;99.90;;;;;;5035031;28;20207;-95
2022/05/29 00:06:09;;;;;;;8.93;2.00;;;10.20;99.90;;;;;;5035316;28;20708;-92
2022/05/29 00:08:40;;;;;;;8.97;2.10;;;10.20;99.90;;;;;;5036408;28;20218;-90
2022/05/29 00:11:10;;;;;;;7.93;2.03;;;10.20;99.90;;;;;;5035301;28;20662;-90
2022/05/29 00:13:37;;;;;;;7.33;2.80;;;10.30;99.90;;;;;;5034935;28;20571;-92
2022/05/29 00:16:05;;;;;;;8.20;2.00;;;10.50;99.90;;;;;;5034876;28;20222;-92
2022/05/29 00:18:32;;;;;;;10.00;2.13;;;10.60;99.90;;;;;;5034723;28;20669;-89
2022/05/29 00:21:00;;;;;;;5.63;2.23;;;10.50;99.90;;;;;;5042538;28;20200;-90
2022/05/29 00:23:30;;;;;;;3.23;1.80;;;10.50;99.90;;;;;;5038393;28;20218;-92
2022/05/29 00:25:57;;;;;;;11.20;2.33;;;10.40;99.90;;;;;;5035057;28;20284;-91
2022/05/29 00:28:24;;;;;;;4.90;2.37;;;10.50;99.90;;;;;;5034895;28;20725;-90
2022/05/29 00:30:51;;;;;;;5.00;1.70;;;10.40;99.90;;;;;;5036341;28;20211;-91
2022/05/29 00:33:18;;;;;;;6.03;1.93;;;10.40;99.90;;;;;;5035229;28;20211;-92
2022/05/29 00:35:45;;;;;;;4.90;1.70;;;10.50;99.90;;;;;;5035065;28;20211;-91
2022/05/29 00:38:13;;;;;;;4.22;1.80;;;10.50;99.90;;;;;;5034712;28;20427;-89
2022/05/29 00:40:48;;;;;;;6.40;1.87;;;10.70;99.90;;;;;;5035245;28;20277;-91
2022/05/29 00:43:15;;;;;;;5.80;1.70;;;10.70;99.90;;;;;;5034981;28;20271;-94
2022/05/29 00:45:48;;;;;;;7.77;1.70;;;10.60;99.90;;;;;;5034724;28;20195;-91
2022/05/29 00:48:17;;;;;;;4.93;1.90;;;10.50;99.90;;;;;;5034753;28;20211;-93
2022/05/29 00:50:45;;;;;;;8.27;2.07;;;10.50;99.90;;;;;;5034293;28;20211;-94
2022/05/29 00:53:14;;;;;;;6.67;1.63;;;10.50;99.90;;;;;;5034347;28;20211;-94
2022/05/29 00:55:46;;;;;;;8.43;2.10;;;10.50;99.90;;;;;;5034571;28;20242;-92
2022/05/29 00:58:13;;;;;;;7.43;2.03;;;10.40;99.90;;;;;;5034394;28;20215;-93
2022/05/29 01:00:41;;;;;;;6.97;1.80;;;10.30;99.90;;;;;;5039913;28;20222;-86
2022/05/29 01:03:08;;;;;;;6.75;2.50;;;10.20;99.90;;;;;;5040998;28;20434;-92
2022/05/29 01:05:37;;;;;;;6.17;2.00;;;10.30;99.90;;;;;;5034092;28;20215;-90
2022/05/29 01:08:10;;;;;;;9.63;2.27;;;10.20;99.90;;;;;;5034103;28;20214;-93
2022/05/29 01:10:55;;;;;;;8.80;2.07;;;10.30;99.90;;;;;;5034009;28;20210;-94
2022/05/29 01:13:31;;;;;;;6.27;1.77;;;10.40;99.90;;;;;;5034270;28;20226;-91
2022/05/29 01:16:05;;;;;;;4.20;1.87;;;10.40;99.90;;;;;;5000821;28;20631;-94
2022/05/29 01:18:37;;;;;;;6.53;2.00;;;10.40;99.90;;;;;;5033644;28;20211;-92
2022/05/29 01:21:20;;;;;;;3.97;1.73;;;10.40;99.90;;;;;;5033543;28;20210;-94
2022/05/29 01:24:10;;;;;;;5.53;1.60;;;10.30;99.90;;;;;;5033867;28;20191;-88
2022/05/29 01:27:20;;;;;;;6.10;2.00;;;10.30;99.90;;;;;;5033426;28;20882;-95
2022/05/29 01:30:01;;;;;;;7.80;2.27;;;10.30;99.90;;;;;;4972681;28;20279;-88
2022/05/29 01:32:35;;;;;;;9.10;2.33;;;10.20;99.90;;;;;;4973444;28;20194;-94
2022/05/29 01:35:07;;;;;;;7.07;2.20;;;10.10;99.90;;;;;;5015718;28;20210;-94
2022/05/29 01:37:43;;;;;;;6.47;1.70;;;10.10;99.90;;;;;;5037838;28;20233;-88
2022/05/29 01:40:16;;;;;;;9.10;2.30;;;10.00;99.90;;;;;;5028507;28;20250;-92
2022/05/29 01:42:48;;;;;;;7.27;1.90;;;10.00;99.90;;;;;;5025130;28;20210;-88
2022/05/29 01:45:28;;;;;;;5.87;2.00;;;10.00;99.90;;;;;;5011517;28;20680;-91
2022/05/29 01:48:03;;;;;;;8.80;2.20;;;9.90;99.90;;;;;;5037599;28;20199;-91
2022/05/29 01:50:35;;;;;;;6.97;2.17;;;9.90;99.90;;;;;;5037412;28;20411;-93
2022/05/29 01:53:08;;;;;;;3.70;1.37;;;10.00;99.90;;;;;;5037375;28;20634;-93
2022/05/29 01:55:41;;;;;;;7.43;2.27;;;10.00;99.90;;;;;;5037428;28;20209;-90
2022/05/29 01:58:11;;;;;;;6.63;2.00;;;9.80;99.90;;;;;;5037762;28;20199;-91
2022/05/29 02:00:41;;;;;;;5.77;2.00;;;9.80;99.90;;;;;;5037484;28;20238;-89
2022/05/29 02:03:12;;;;;;;5.97;2.00;;;9.80;99.90;;;;;;5037911;28;20207;-95
2022/05/29 02:05:42;;;;;;;6.63;2.30;;;9.70;99.90;;;;;;5037071;28;20207;-94
2022/05/29 02:08:14;;;;;;;5.37;2.33;;;9.80;99.90;;;;;;5037760;28;20199;-94
2022/05/29 02:10:45;;;;;;;6.33;2.50;;;9.60;99.90;;;;;;5037393;28;20207;-93
2022/05/29 02:13:18;;;;;;;7.80;2.43;;;9.70;99.90;;;;;;5037276;28;20191;-94
2022/05/29 02:15:51;;;;;;;6.60;2.83;;;9.70;99.90;;;;;;5037097;28;20438;-93
2022/05/29 02:18:24;;;;;;;6.60;2.50;;;9.70;99.90;;;;;;5037618;28;20214;-95
2022/05/29 02:20:55;;;;;;;7.73;3.00;;;9.70;99.90;;;;;;5036730;28;20219;-88
2022/05/29 02:23:29;;;;;;;6.13;3.10;;;9.70;99.90;;;;;;5036916;28;20230;-89
2022/05/29 02:25:58;;;;;;;8.17;2.77;;;9.60;99.90;;;;;;5036912;28;20226;-95
2022/05/29 02:28:30;;;;;;;6.67;3.10;;;9.80;99.90;;;;;;5037236;28;20203;-85
2022/05/29 02:31:10;;;;;;;9.80;3.53;;;9.80;99.90;;;;;;5038811;28;20203;-94
2022/05/29 02:33:48;;;;;;;5.33;2.90;;;9.80;99.90;;;;;;5049285;28;20215;-86
2022/05/29 02:36:23;;;;;;;11.57;3.53;;;9.60;99.90;;;;;;5040476;28;20647;-92
2022/05/29 02:39:07;;;;;;;9.37;3.33;;;9.50;99.90;;;;;;5037080;28;20202;-93
2022/05/29 02:41:46;;;;;;;8.47;3.43;;;9.50;99.90;;;;;;5037148;28;20201;-94
2022/05/29 02:44:22;;;;;;;10.20;3.60;;;9.60;99.90;;;;;;5036514;28;20298;-93
2022/05/29 02:46:53;;;;;;;10.47;3.60;;;9.70;99.90;;;;;;5035877;28;20191;-92
2022/05/29 02:49:25;;;;;;;7.93;3.00;;;9.80;99.90;;;;;;5037653;28;20192;-87
2022/05/29 02:51:56;;;;;;;7.73;3.27;;;9.90;99.90;;;;;;5038179;28;20654;-93
2022/05/29 02:54:26;;;;;;;8.00;2.90;;;9.90;99.90;;;;;;5036749;28;20260;-91
2022/05/29 02:56:53;;;;;;;9.07;4.40;;;9.80;99.90;;;;;;5036571;28;20211;-90
2022/05/29 02:59:23;;;;;;;6.17;3.20;;;9.80;99.90;;;;;;5038823;28;20199;-90
2022/05/29 03:02:01;;;;;;;6.60;3.30;;;9.90;99.90;;;;;;5037697;28;20207;-92
2022/05/29 03:04:35;;;;;;;5.43;3.30;;;9.80;99.90;;;;;;5036090;28;20206;-90
2022/05/29 03:07:10;;;;;;;10.37;3.67;;;9.90;99.90;;;;;;5036799;28;20194;-93
2022/05/29 03:09:46;;;;;;;13.00;3.90;;;9.80;99.90;;;;;;5046921;28;20214;-87
2022/05/29 03:12:26;;;;;;;5.30;2.97;;;9.70;99.90;;;;;;5036887;28;20206;-92
2022/05/29 03:15:09;;;;;;;8.30;3.13;;;9.70;99.90;;;;;;5036522;28;20192;-94
2022/05/29 03:17:45;;;;;;;5.77;3.20;;;9.80;99.90;;;;;;5035738;28;20215;-90
2022/05/29 03:20:20;;;;;;;6.80;3.33;;;9.80;99.90;;;;;;5037221;28;20211;-95
2022/05/29 03:22:56;;;;;;;7.63;3.63;;;9.60;99.90;;;;;;5036172;28;20218;-87
2022/05/29 03:25:31;;;;;;;7.60;3.53;;;9.70;99.90;;;;;;5036139;28;20222;-90
2022/05/29 03:28:00;;;;;;;7.67;3.33;;;9.80;99.90;;;;;;5036768;28;20205;-90
2022/05/29 03:30:29;;;;;;;9.07;3.50;;;9.80;99.90;;;;;;5034982;28;20435;-90
2022/05/29 03:33:00;;;;;;;5.27;3.10;;;9.80;99.90;;;;;;5036231;28;20206;-93
2022/05/29 03:35:29;;;;;;;6.97;3.10;;;9.90;99.90;;;;;;5036505;28;20195;-94
2022/05/29 03:37:57;;;;;;;6.57;2.83;;;10.00;99.90;;;;;;5035703;28;20207;-95
2022/05/29 03:40:26;;;;;;;7.47;3.37;;;10.00;99.90;;;;;;5038050;28;20237;-93
2022/05/29 03:42:53;;;;;;;6.67;2.90;;;10.00;99.90;;;;;;5044009;28;20238;-90
2022/05/29 03:45:20;;;;;;;6.37;2.97;;;10.10;99.90;;;;;;5041316;28;20207;-93
2022/05/29 03:47:47;;;;;;;4.57;2.80;;;10.20;99.90;;;;;;5017834;28;20203;-93
2022/05/29 03:50:18;;;;;;;4.37;3.00;;;10.10;99.90;;;;;;5035431;28;20558;-90
2022/05/29 03:52:46;;;;;;;8.03;3.20;;;10.10;99.90;;;;;;5035765;28;20208;-94
2022/05/29 03:55:14;;;;;;;9.75;4.13;;;10.10;99.90;;;;;;5034389;28;20435;-89
2022/05/29 03:57:43;;;;;;;7.83;3.13;;;10.10;99.90;;;;;;5037362;28;20565;-86
2022/05/29 04:00:12;;;;;;;9.40;3.30;;;10.10;99.90;;;;;;5039867;28;20231;-92
2022/05/29 04:02:40;;;;;;;6.00;3.40;;;10.00;99.90;;;;;;5039355;28;20211;-92
2022/05/29 04:05:08;;;;;;;9.40;3.20;;;10.10;99.90;;;;;;5034876;28;20207;-92
2022/05/29 04:13:01;;;;;;;9.20;3.17;;;10.00;99.90;;;;;;5035176;28;20206;-92
2022/05/29 04:15:28;;;;;;;8.83;2.93;;;10.10;99.90;;;;;;5034701;28;20215;-87
2022/05/29 04:17:54;;;;;;;6.27;3.50;;;10.10;99.90;;;;;;5035078;28;20676;-86
2022/05/29 04:20:21;;;;;;;7.43;3.30;;;10.10;99.90;;;;;;5035367;28;20596;-95
2022/05/29 04:22:50;;;;;;;6.20;3.30;;;10.00;99.90;;;;;;5035475;28;20207;-87
2022/05/29 04:25:16;;;;;;;6.93;2.87;;;9.90;99.90;;;;;;5044081;28;20226;-87
2022/05/29 04:27:44;;;;;;;5.13;2.80;;;9.90;99.90;;;;;;5037656;28;20542;-89
2022/05/29 04:30:13;;;;;;;4.30;2.53;;;9.80;99.90;;;;;;5035367;28;20202;-88
2022/05/29 04:35:24;;;;;;;7.63;3.30;;;9.90;99.90;;;;;;5034854;28;20287;-95
2022/05/29 04:37:52;;;;;;;11.07;3.57;;;10.10;99.90;;;;;;5034287;28;20197;-88
2022/05/29 04:40:19;;;;;;;6.97;3.20;;;10.20;99.90;;;;;;5034461;28;20239;-95
2022/05/29 04:42:46;;;;;;;7.33;3.03;;;10.30;99.90;;;;;;5034605;28;20203;-91
2022/05/29 04:45:12;;;;;;;10.02;3.78;;;10.30;99.90;;;;;;5033512;28;20430;-94
2022/05/29 04:47:39;;;;;;;3.97;2.87;;;10.40;99.90;;;;;;5035071;28;20195;-91
2022/05/29 04:50:07;;;;;;;6.03;3.53;;;10.50;99.90;;;;;;5034227;28;20191;-93
2022/05/29 04:52:34;;;;;;;5.83;3.10;;;10.50;99.90;;;;;;5034285;28;20207;-93
2022/05/29 04:55:04;;;;;;;4.53;3.10;;;10.40;99.90;;;;;;5034430;28;20619;-93
2022/05/29 04:57:31;;;;;;;5.43;2.97;;;10.50;99.90;;;;;;5034575;28;20191;-93
2022/05/29 05:00:00;;;;;;;5.20;2.67;;;10.60;99.90;;;;;;5035919;28;20207;-92
2022/05/29 05:02:27;;;;;;;5.70;3.20;;;10.60;99.90;;;;;;5022313;28;20207;-90
2022/05/29 05:04:54;;;;;;;9.57;3.27;;;10.60;99.90;;;;;;5016003;28;20211;-89
2022/05/29 05:07:21;;;;;;;6.53;2.90;;;10.50;99.90;;;;;;5022555;28;20211;-91
2022/05/29 05:09:48;;;;;;;7.30;2.87;;;10.50;99.90;;;;;;5017047;28;20214;-91
2022/05/29 05:12:16;;;;;;;5.20;2.60;;;10.50;99.90;;;;;;5015680;28;20192;-88
2022/05/29 05:14:43;;;;;;;7.53;2.70;;;10.50;99.90;;;;;;5015095;28;20659;-88
2022/05/29 05:17:10;;;;;;;5.17;2.23;;;10.60;99.90;;;;;;5015348;28;20204;-90
2022/05/29 05:19:37;;;;;;;3.17;2.37;;;10.50;99.90;;;;;;5015801;28;20204;-89
2022/05/29 05:22:08;;;;;;;4.93;2.60;;;10.50;99.90;;;;;;5018767;28;20226;-90
2022/05/29 05:24:37;;;;;;;5.93;2.17;;;10.40;99.90;;;;;;5035133;28;20257;-93
2022/05/29 05:27:04;;;;;;;3.27;2.20;;;10.40;99.90;;;;;;5034992;28;20234;-91
2022/05/29 05:29:32;;;;;;;6.33;2.40;;;10.50;99.90;;;;;;5037384;28;21232;-94
2022/05/29 05:31:59;;;;;;;4.03;2.37;;;10.40;99.90;;;;;;5028537;28;20203;-89
2022/05/29 05:34:27;;;;;;;3.47;2.03;;;10.70;99.90;;;;;;5038678;28;20199;-88
2022/05/29 05:36:54;;;;;;;6.63;2.10;;;10.50;99.90;;;;;;5042201;28;20195;-86
2022/05/29 05:39:21;;;;;;;4.80;2.30;;;10.60;99.90;;;;;;5028502;28;20199;-90
2022/05/29 05:41:47;;;;;;;3.30;1.90;;;10.50;99.90;;;;;;5035639;28;20234;-95
2022/05/29 05:44:14;;;;;;;3.97;2.10;;;10.60;99.90;;;;;;5037869;28;20320;-88
2022/05/29 05:46:50;;;;;;;5.80;2.47;;;10.70;99.90;;;;;;5038251;28;20681;-91
2022/05/29 05:49:18;;;;;;;3.83;2.00;;;10.80;99.90;;;;;;5034930;28;20218;-94
2022/05/29 05:51:45;;;;;;;4.53;2.17;;;10.80;99.90;;;;;;5036932;28;20200;-94
2022/05/29 05:54:12;;;;;;;3.40;2.13;;;10.80;99.90;;;;;;5037873;28;20195;-88
2022/05/29 05:56:42;;;;;;;4.97;2.40;;;10.80;99.90;;;;;;5039718;28;20195;-92
2022/05/29 05:59:09;;;;;;;4.95;2.85;;;10.90;99.90;;;;;;5036104;28;20439;-87
2022/05/29 06:01:36;;;;;;;4.90;2.20;;;11.10;99.90;;;;;;5036202;28;20215;-89
2022/05/29 06:04:09;;;;;;;8.57;2.37;;;11.20;99.90;;;;;;5034121;28;20207;-87
2022/05/29 06:06:36;;;;;;;9.10;3.07;;;11.30;99.90;;;;;;5033448;28;20206;-88
2022/05/29 06:09:03;;;;;;;8.50;3.10;;;11.40;99.90;;;;;;5015901;28;20551;-88
2022/05/29 06:11:33;;;;;;;10.87;2.63;;;11.40;99.90;;;;;;5016034;28;20214;-90
2022/05/29 06:14:00;;;;;;;6.37;2.50;;;11.40;99.90;;;;;;5033304;28;20678;-88
2022/05/29 06:16:27;;;;;;;6.77;2.30;;;11.40;99.90;;;;;;5033329;28;20207;-87
2022/05/29 06:18:53;;;;;;;5.20;2.20;;;11.30;99.90;;;;;;5033479;28;20221;-89
2022/05/29 06:21:21;;;;;;;8.53;2.37;;;11.10;99.90;;;;;;5040470;28;20708;-88
2022/05/29 06:23:48;;;;;;;5.93;2.40;;;11.20;99.90;;;;;;5038966;28;20203;-88
2022/05/29 06:26:15;;;;;;;4.73;2.20;;;11.20;99.90;;;;;;5037200;28;20226;-88
2022/05/29 06:28:42;;;;;;;9.10;2.50;;;11.40;99.90;;;;;;5037152;28;20203;-89
2022/05/29 06:31:11;;;;;;;5.23;2.00;;;11.60;99.90;;;;;;5037229;28;20710;-88
2022/05/29 06:33:39;;;;;;;7.60;2.50;;;11.60;99.90;;;;;;5037221;28;20207;-89
2022/05/29 06:36:10;;;;;;;6.10;2.20;;;11.60;99.90;;;;;;5036599;28;20674;-90
2022/05/29 06:38:39;;;;;;;6.57;2.30;;;11.70;99.90;;;;;;5037572;28;20203;-89
2022/05/29 06:41:07;;;;;;;6.57;2.10;;;11.80;99.90;;;;;;5036073;28;20219;-84
2022/05/29 06:43:34;;;;;;;12.60;2.63;;;11.90;99.90;;;;;;5036198;28;20559;-87
2022/05/29 06:46:02;;;;;;;7.60;2.00;;;11.90;99.90;;;;;;5036104;28;20198;-87
2022/05/29 06:48:29;;;;;;;8.33;2.30;;;12.00;99.90;;;;;;5036018;28;20204;-87
2022/05/29 06:50:56;;;;;;;5.17;1.90;;;12.10;99.90;;;;;;5035758;28;20211;-86
2022/05/29 06:53:24;;;;;;;3.83;1.60;;;12.20;99.90;;;;;;5035854;28;20195;-83
2022/05/29 06:55:55;;;;;;;4.67;1.63;;;12.40;99.90;;;;;;5035991;28;20210;-85
2022/05/29 06:58:23;;;;;;;4.07;1.80;;;12.40;99.90;;;;;;5036050;28;20204;-85
2022/05/29 07:09:05;;;;;;;8.10;1.97;;;12.60;99.90;;;;;;5035452;28;20226;-87
2022/05/29 07:11:37;;;;;;;6.03;1.73;;;12.50;99.90;;;;;;5035941;28;20665;-86
2022/05/29 07:14:05;;;;;;;3.43;1.60;;;12.80;99.90;;;;;;5035175;28;20230;-87
2022/05/29 07:16:34;;;;;;;3.17;1.30;;;13.00;99.90;;;;;;5033176;28;20195;-88
2022/05/29 07:19:01;;;;;;;7.00;1.33;;;13.00;99.90;;;;;;5035121;28;20217;-84
2022/05/29 07:21:30;;;;;;;6.77;1.47;;;13.00;99.90;;;;;;5035162;28;20240;-84
2022/05/29 07:23:57;;;;;;;5.07;1.67;;;13.10;99.90;;;;;;5035545;28;20223;-84
2022/05/29 07:26:25;;;;;;;2.73;1.43;;;13.30;99.90;;;;;;5035241;28;20248;-84
2022/05/29 07:28:54;;;;;;;2.20;1.57;;;13.40;99.90;;;;;;5035381;28;20209;-84
2022/05/29 07:31:21;;;;;;;7.77;1.60;;;13.30;99.90;;;;;;5034728;28;20216;-84
2022/05/29 07:33:47;;;;;;;5.13;1.20;;;13.30;99.90;;;;;;5035396;28;20630;-84
2022/05/29 07:36:14;;;;;;;7.40;1.67;;;13.30;99.90;;;;;;5035366;28;20603;-85
2022/05/29 07:38:42;;;;;;;5.05;1.70;;;13.30;99.90;;;;;;5034243;28;20427;-84
2022/05/29 07:43:49;;;;;;;3.43;1.40;;;13.50;99.90;;;;;;5034942;28;20291;-84
2022/05/29 07:46:17;;;;;;;2.03;1.23;;;13.60;99.90;;;;;;5036974;28;20219;-88
2022/05/29 07:48:44;;;;;;;3.00;1.30;;;13.40;99.90;;;;;;5035437;28;20228;-89
2022/05/29 07:51:11;;;;;;;2.90;1.20;;;13.00;99.90;;;;;;5034535;28;20207;-87
2022/05/29 07:53:38;;;;;;;5.60;1.20;;;13.00;99.90;;;;;;5034437;28;20208;-88
2022/05/29 07:56:06;;;;;;;3.70;1.20;;;12.90;99.90;;;;;;5035030;28;20216;-86
2022/05/29 07:58:33;;;;;;;2.37;1.33;;;12.90;99.90;;;;;;5035038;28;20203;-87
2022/05/29 08:01:01;;;;;;;2.70;1.37;;;12.70;99.90;;;;;;5034788;28;20258;-85
2022/05/29 08:03:30;;;;;;;3.50;1.37;;;12.30;99.90;;;;;;5034957;28;20299;-87
2022/05/29 08:05:58;;;;;;;3.17;1.43;;;12.10;99.90;;;;;;5034732;28;20211;-87
2022/05/29 08:08:26;;;;;;;2.20;1.10;;;12.00;99.90;;;;;;5034241;28;20215;-86
2022/05/29 08:10:53;;;;;;;2.73;1.27;;;12.00;99.90;;;;;;5034700;28;20207;-86
2022/05/29 08:13:20;;;;;;;2.40;1.00;;;12.00;99.90;;;;;;5033873;28;20294;-86
2022/05/29 08:15:47;;;;;;;2.30;1.20;;;12.20;99.90;;;;;;5035098;28;20224;-86
2022/05/29 08:18:14;;;;;;;3.07;1.10;;;12.40;99.90;;;;;;5034775;28;20203;-87
2022/05/29 08:20:42;;;;;;;2.53;1.33;;;12.40;99.90;;;;;;5033937;28;20689;-86
2022/05/29 08:23:09;;;;;;;2.20;1.07;;;12.70;99.90;;;;;;5034209;28;20211;-86
2022/05/29 08:31:05;;;;;;;3.83;1.40;;;13.40;99.90;;;;;;5034176;28;20215;-85
2022/05/29 08:33:33;;;;;;;2.17;1.00;;;13.70;99.90;;;;;;5034121;28;20589;-85
2022/05/29 08:36:05;;;;;;;3.00;0.97;;;13.80;99.90;;;;;;5033874;28;20646;-86
2022/05/29 08:38:34;;;;;;;1.03;0.80;;;13.90;99.90;;;;;;5034202;28;20205;-86
2022/05/29 08:41:03;;;;;;;3.13;1.10;;;14.00;99.90;;;;;;5033974;28;20217;-86
2022/05/29 08:43:34;;;;;;;5.73;0.80;;;14.10;99.90;;;;;;5033294;28;20229;-85
2022/05/29 08:46:06;;;;;;;1.93;0.80;;;14.30;99.90;;;;;;5034019;28;20225;-86
2022/05/29 08:48:33;;;;;;;2.13;0.83;;;14.60;99.90;;;;;;5034134;28;20677;-85
2022/05/29 08:51:18;;;;;;;1.13;0.80;;;14.90;99.90;;;;;;5033565;28;20214;-85
2022/05/29 08:53:52;;;;;;;2.35;1.00;;;14.90;99.90;;;;;;5033211;28;20441;-86
2022/05/29 08:56:27;;;;;;;3.03;0.83;;;15.00;99.90;;;;;;5033981;28;20226;-85
2022/05/29 08:59:07;;;;;;;3.17;1.00;;;15.00;99.90;;;;;;5033819;28;20221;-86
2022/05/29 09:01:51;;;;;;;1.47;0.60;;;15.00;99.90;;;;;;5033843;28;20238;-86
2022/05/29 09:04:27;;;;;;;2.93;0.80;;;14.90;99.90;;;;;;5033212;28;20232;-87
2022/05/29 09:06:59;;;;;;;2.00;0.90;;;14.60;99.90;;;;;;5033171;28;20666;-87
2022/05/29 09:09:33;;;;;;;2.17;0.70;;;14.60;99.90;;;;;;5035074;28;20218;-87
2022/05/29 09:12:04;;;;;;;2.03;0.90;;;14.70;99.90;;;;;;5032518;28;20212;-86
2022/05/29 09:14:42;;;;;;;1.20;0.73;;;15.00;99.90;;;;;;5033447;28;20191;-86
2022/05/29 09:17:13;;;;;;;1.53;0.70;;;14.90;99.90;;;;;;5033607;28;20244;-86
2022/05/29 09:19:47;;;;;;;2.00;0.70;;;14.60;99.90;;;;;;5033160;28;20209;-88
2022/05/29 09:22:20;;;;;;;0.70;0.60;;;14.30;99.90;;;;;;5033488;28;20233;-86
2022/05/29 09:24:55;;;;;;;0.57;0.57;;;14.10;99.90;;;;;;5033210;28;20210;-86
2022/05/29 09:27:23;;;;;;;2.23;0.60;;;14.00;99.90;;;;;;5033780;28;20218;-87
2022/05/29 09:29:51;;;;;;;1.43;0.60;;;14.00;99.90;;;;;;5032863;28;20210;-86
2022/05/29 09:32:21;;;;;;;0.70;0.50;;;14.10;99.90;;;;;;5033043;28;20218;-87
2022/05/29 09:34:57;;;;;;;1.17;0.80;;;14.00;99.90;;;;;;5033544;28;20206;-88
2022/05/29 09:37:37;;;;;;;0.77;0.70;;;14.10;99.90;;;;;;5033524;28;20209;-88
2022/05/29 09:40:08;;;;;;;1.20;0.77;;;14.10;99.90;;;;;;5033635;28;20209;-86
2022/05/29 09:42:39;;;;;;;1.77;0.70;;;14.20;99.90;;;;;;5033536;28;20234;-86
2022/05/29 09:45:11;;;;;;;2.07;0.70;;;14.50;99.90;;;;;;5032940;28;20220;-86
2022/05/29 09:50:26;;;;;;;1.33;0.50;;;15.10;99.90;;;;;;5032956;28;20218;-86
2022/05/29 09:52:55;;;;;;;1.60;1.00;;;15.30;99.90;;;;;;5035370;28;20207;-86
2022/05/29 09:55:28;;;;;;;2.87;1.00;;;15.10;99.90;;;;;;5039185;28;20210;-87
2022/05/29 09:58:00;;;;;;;1.33;0.80;;;15.00;99.90;;;;;;5037678;28;20564;-87
2022/05/29 10:00:30;;;;;;;1.20;0.80;;;14.80;99.90;;;;;;5019498;28;20219;-87
2022/05/29 10:02:57;;;;;;;0.83;0.83;;;14.70;99.90;;;;;;5036853;28;20237;-86
2022/05/29 10:05:27;;;;;;;0.60;0.50;;;14.70;99.90;;;;;;5037400;28;20219;-85
2022/05/29 10:07:59;;;;;;;1.90;1.03;;;14.80;99.90;;;;;;5019644;28;20311;-85
2022/05/29 10:10:32;;;;;;;2.03;0.93;;;14.80;99.90;;;;;;5036514;28;20697;-85
2022/05/29 10:13:01;;;;;;;2.60;1.20;;;14.80;99.90;;;;;;5036800;28;20307;-86
2022/05/29 10:15:40;;;;;;;1.63;1.00;;;14.50;99.90;;;;;;5036753;28;20214;-84
2022/05/29 10:18:14;;;;;;;1.77;1.10;;;13.50;99.90;;;;;;5036528;28;20304;-85
2022/05/29 10:20:43;;;;;;;2.77;1.33;;;13.40;99.90;;;;;;5036566;28;20216;-85
2022/05/29 10:23:13;;;;;;;2.87;1.37;;;13.20;99.90;;;;;;5036644;28;20238;-89
2022/05/29 10:25:54;;;;;;;1.20;1.10;;;13.00;99.90;;;;;;5036767;28;20239;-87
2022/05/29 10:28:27;;;;;;;1.23;1.00;;;13.00;99.90;;;;;;5036203;28;20218;-85
2022/05/29 10:30:58;;;;;;;1.93;1.00;;;12.90;99.90;;;;;;5020048;28;20223;-85
2022/05/29 10:33:28;;;;;;;2.63;0.90;;;13.10;99.90;;;;;;5024784;28;20439;-90
2022/05/29 10:35:59;;;;;;;0.60;0.60;;;13.60;99.90;;;;;;5037844;28;20699;-86
2022/05/29 10:38:29;;;;;;;0.97;0.77;;;14.10;99.90;;;;;;5036678;28;20285;-87
2022/05/29 10:40:58;;;;;;;4.73;0.90;;;14.40;99.90;;;;;;5036891;28;20222;-87
2022/05/29 10:43:38;;;;;;;1.80;1.00;;;14.50;99.90;;;;;;5018837;28;20270;-87
2022/05/29 10:46:07;;;;;;;1.13;0.73;;;14.50;99.90;;;;;;5036546;28;20221;-87
2022/05/29 10:49:05;;;;;;;3.30;1.20;;;14.30;99.90;;;;;;5035565;28;20677;-86
2022/05/29 10:51:43;;;;;;;5.93;1.40;;;14.00;99.90;;;;;;5033180;28;20232;-86
2022/05/29 10:54:32;;;;;;;3.50;1.20;;;14.00;99.90;;;;;;5036072;28;20210;-86
2022/05/29 10:57:11;;;;;;;4.00;1.70;;;13.80;99.90;;;;;;5036243;28;20217;-87
2022/05/29 11:00:02;;;;;;;2.80;1.20;;;13.70;99.90;;;;;;5033825;28;20212;-87
2022/05/29 11:05:46;;;;;;;5.87;1.50;;;13.70;99.90;;;;;;5036277;28;20232;-86
2022/05/29 11:08:31;;;;;;;3.10;1.87;;;13.70;99.90;;;;;;5034968;28;20218;-85
2022/05/29 11:11:19;;;;;;;1.70;1.10;;;13.50;99.90;;;;;;5035858;28;20228;-85
2022/05/29 11:14:01;;;;;;;2.33;1.10;;;13.60;99.90;;;;;;5036719;28;20232;-84
2022/05/29 11:16:38;;;;;;;2.00;1.13;;;14.00;99.90;;;;;;5035085;28;20701;-85
2022/05/29 11:19:36;;;;;;;3.80;1.17;;;13.70;99.90;;;;;;5035682;28;20221;-85
2022/05/29 11:22:18;;;;;;;1.43;1.10;;;13.50;99.90;;;;;;5035610;28;20245;-85
2022/05/29 11:25:04;;;;;;;2.43;1.00;;;13.70;99.90;;;;;;5035675;28;20215;-85
2022/05/29 11:27:47;;;;;;;3.90;1.30;;;14.00;99.90;;;;;;5035529;28;20268;-85
2022/05/29 11:30:21;;;;;;;1.83;1.10;;;14.30;99.90;;;;;;5035394;28;20218;-86
2022/05/29 11:33:05;;;;;;;1.60;0.97;;;14.40;99.90;;;;;;5038221;28;20226;-85
2022/05/29 11:35:47;;;;;;;3.07;1.10;;;14.70;99.90;;;;;;5038031;28;20685;-86
2022/05/29 11:38:29;;;;;;;1.10;0.83;;;14.70;99.90;;;;;;5035427;28;20210;-83
2022/05/29 11:41:02;;;;;;;1.80;1.30;;;14.70;99.90;;;;;;5034987;28;20203;-83
2022/05/29 11:43:34;;;;;;;2.67;1.17;;;14.60;99.90;;;;;;5035002;28;20234;-84
2022/05/29 11:51:49;;;;;;;13.60;3.63;;;13.70;99.90;;;;;;5034778;28;20202;-83
2022/05/29 11:54:23;;;;;;;4.43;1.60;;;13.70;99.90;;;;;;5034919;28;20697;-84
2022/05/29 11:56:56;;;;;;;2.23;1.23;;;13.40;99.90;;;;;;5034429;28;20215;-82
2022/05/29 11:59:33;;;;;;;2.37;1.33;;;13.20;99.90;;;;;;5034347;28;20203;-83
2022/05/29 12:02:09;;;;;;;2.13;1.10;;;12.90;99.90;;;;;;5034618;28;20229;-82
2022/05/29 12:04:41;;;;;;;1.40;1.30;;;12.90;99.90;;;;;;5034807;28;20213;-83
2022/05/29 12:07:12;;;;;;;2.20;1.60;;;12.90;99.90;;;;;;5034423;28;20699;-82
2022/05/29 12:09:46;;;;;;;4.07;1.70;;;13.00;99.90;;;;;;5033439;28;20676;-82
2022/05/29 12:12:17;;;;;;;2.63;1.30;;;12.70;99.90;;;;;;5034462;28;20672;-84
2022/05/29 12:14:52;;;;;;;3.50;1.50;;;12.80;99.90;;;;;;5034712;28;20672;-85
2022/05/29 12:17:24;;;;;;;3.57;1.40;;;12.60;99.90;;;;;;5035677;28;20224;-84
2022/05/29 12:19:55;;;;;;;2.93;1.30;;;12.80;99.90;;;;;;5034388;28;20681;-85
2022/05/29 12:22:26;;;;;;;2.67;1.40;;;12.70;99.90;;;;;;5034140;28;20235;-85
2022/05/29 12:24:54;;;;;;;4.13;1.20;;;12.90;99.90;;;;;;5034342;28;20217;-84
2022/05/29 12:27:23;;;;;;;2.17;1.30;;;13.20;99.90;;;;;;5034295;28;20296;-85
2022/05/29 12:29:54;;;;;;;4.23;1.50;;;13.50;99.90;;;;;;5033972;28;20214;-85
2022/05/29 12:32:23;;;;;;;1.53;1.00;;;13.90;99.90;;;;;;5034059;28;20226;-82
2022/05/29 12:34:55;;;;;;;2.77;1.30;;;14.30;99.90;;;;;;5034008;28;20761;-83
2022/05/29 12:38:02;;;;;;;3.50;1.30;;;14.40;99.90;;;;;;5033766;28;20529;-82
2022/05/29 12:40:43;;;;;;;2.20;1.20;;;14.60;99.90;;;;;;4953926;29;20257;-82
2022/05/29 12:43:29;;;;;;;2.03;1.10;;;14.90;99.90;;;;;;4953337;29;20234;-81
2022/05/29 12:46:06;;;;;;;3.50;1.50;;;15.20;99.90;;;;;;5011433;28;20690;-82
2022/05/29 12:49:07;;;;;;;3.10;1.10;;;15.10;99.90;;;;;;5033757;28;20215;-82
2022/05/29 12:52:06;;;;;;;7.13;1.50;;;14.90;99.90;;;;;;5033523;28;20678;-82
2022/05/29 12:55:03;;;;;;;1.27;0.90;;;14.90;99.90;;;;;;5033765;28;20211;-81
2022/05/29 12:57:55;;;;;;;2.43;1.17;;;14.70;99.90;;;;;;5033510;28;20218;-83
2022/05/29 13:00:39;;;;;;;1.27;0.77;;;14.70;99.90;;;;;;5033923;28;20206;-86
2022/05/29 13:03:39;;;;;;;4.50;0.90;;;14.30;99.90;;;;;;5033743;28;20226;-84
2022/05/29 13:06:37;;;;;;;1.70;1.50;;;13.90;99.90;;;;;;5033686;28;20250;-85
2022/05/29 13:09:27;;;;;;;1.83;1.03;;;13.90;99.90;;;;;;5000600;28;20225;-85
2022/05/29 13:11:58;;;;;;;3.63;1.40;;;13.60;99.90;;;;;;5033043;28;20214;-84
2022/05/29 13:14:26;;;;;;;2.87;1.20;;;13.40;99.90;;;;;;5033554;28;20214;-83
2022/05/29 13:17:03;;;;;;;2.43;1.23;;;13.60;99.90;;;;;;5033562;28;20662;-84
2022/05/29 13:20:09;;;;;;;1.90;1.10;;;13.90;99.90;;;;;;5033660;28;20222;-83
2022/05/29 13:22:56;;;;;;;0.83;0.60;;;14.60;99.90;;;;;;5009383;28;20308;-83
2022/05/29 13:25:26;;;;;;;3.53;1.47;;;15.40;99.90;;;;;;5033532;28;20235;-85
2022/05/29 13:27:53;;;;;;;1.63;0.93;;;16.20;99.90;;;;;;5037345;28;20443;-84
2022/05/29 13:31:08;;;;;;;2.27;1.23;;;16.70;99.90;;;;;;5033693;28;20945;-86
2022/05/29 13:33:53;;;;;;;2.80;0.60;;;17.70;99.90;;;;;;5032938;28;20217;-85
2022/05/29 13:37:06;;;;;;;3.83;1.33;;;17.20;99.90;;;;;;5033542;28;20659;-84
2022/05/29 13:39:56;;;;;;;1.20;0.80;;;17.40;99.90;;;;;;5033226;28;20305;-85
2022/05/29 13:42:26;;;;;;;1.50;0.43;;;17.40;99.90;;;;;;5017869;28;20217;-85
2022/05/29 13:44:53;;;;;;;0.67;0.50;;;17.50;99.90;;;;;;5033342;28;20211;-83
2022/05/29 13:47:32;;;;;;;1.13;0.50;;;17.40;99.90;;;;;;5033512;28;20229;-82
2022/05/29 13:50:02;;;;;;;0.57;0.47;;;16.70;99.90;;;;;;5032824;28;20229;-83
2022/05/29 13:52:32;;;;;;;0.87;0.67;;;16.40;99.90;;;;;;5033244;28;20201;-83